• Join FlightAware (Why Join?)
  • Login
  • US Flag 
10:13PM EDT


 

Airport Tracker/Info


-or-


 

Live Flight TrackerFlight Track Log ✈ DAL1979 ✈ 16-May-2013 ✈ KMCO - KMSP

Flight Track Log - Related Links

Times and Time Zones

All times are in EDT time to prevent confusion due to time zone crossing. See the DAL1979 flight status page for this flight to view local times or setup timezone preferences in your user account.

Time Position Orientation Groundspeed Altitude Reporting Facility
EDT Latitude Longitude Course Direction KTS MPH feet Rate Location/Type
03:58PM 28.3940 -81.2980 180° South 191 220 900  Level FlightAware
03:58PM 28.3830 -81.3050 209° Southwest 184 212 1,500 1,800 Climbing FlightAware
03:58PM 28.3720 -81.3140 216° Southwest 206 237 1,800 1,500 Climbing FlightAware
03:59PM 28.3510 -81.3330 219° Southwest 228 262 2,500 1,740 Climbing FlightAware
03:59PM 28.3230 -81.3560 216° Southwest 260 299 3,400 2,040 Climbing FlightAware
04:00PM 28.3020 -81.3800 225° Southwest 272 313 4,400 2,400 Climbing FlightAware
04:00PM 28.2970 -81.4020 256° West 281 323 5,000 2,640 Climbing FlightAware
04:00PM 28.3050 -81.4460 282° West 285 328 6,400 2,700 Climbing FlightAware
04:01PM 28.3140 -81.4810 286° West 288 331 7,500 2,520 Climbing FlightAware
04:01PM 28.3200 -81.5040 287° West 293 337 8,100 2,520 Climbing FlightAware
04:02PM 28.3330 -81.5480 289° West 301 346 9,400 2,400 Climbing FlightAware
04:02PM 28.3370 -81.5630 287° West 305 351 9,700 2,460 Climbing FlightAware
04:02PM 28.3560 -81.6310 288° West 305 351 11,700 1,800 Climbing FlightAware
04:03PM 28.3730 -81.6940 287° West 338 389 12,300 1,320 Climbing FlightAware
04:04PM 28.3950 -81.7770 287° West 361 415 13,600 1,380 Climbing FlightAware
04:05PM 28.4120 -81.8490 285° West 386 444 14,300 1,740 Climbing FlightAware
04:05PM 28.4310 -81.9190 287° West 383 441 15,800 2,100 Climbing FlightAware
04:06PM 28.4570 -82.0200 286° West 390 449 17,300 1,860 Climbing FlightAware
04:07PM 28.4800 -82.1010 288° West 395 455 18,600 1,800 Climbing FlightAware
04:07PM 28.5020 -82.1810 287° West 399 459 19,700 1,620 Climbing FlightAware
04:08PM 28.5270 -82.2710 288° West 404 465 20,900 1,500 Climbing FlightAware
04:09PM 28.5510 -82.3510 289° West 408 470 21,900 1,440 Climbing FlightAware
04:09PM 28.5790 -82.4460 289° West 415 478 23,000 1,320 Climbing FlightAware
04:10PM 28.6020 -82.5260 288° West 420 483 23,800 1,200 Climbing FlightAware
04:11PM 28.6410 -82.6150 297° West 438 504 24,700 1,200 Climbing FlightAware
04:11PM 28.6830 -82.6530 322° Northwest 452 520 25,200 1,260 Climbing FlightAware
04:12PM 28.7740 -82.7050 333° Northwest 453 521 26,400 1,320 Climbing FlightAware
04:13PM 28.8580 -82.7520 334° Northwest 453 521 27,300 1,200 Climbing FlightAware
04:14PM 28.9290 -82.7930 333° Northwest 455 524 28,000 1,080 Climbing FlightAware
04:15PM 29.0430 -82.8580 334° Northwest 457 526 29,100 1,140 Climbing FlightAware
04:15PM 29.1270 -82.9060 333° Northwest 453 521 30,000 480 Climbing FlightAware
04:16PM 29.2420 -82.9720 333° Northwest 452 520 30,000  Level FlightAware
04:17PM 29.3050 -83.0090 333° Northwest 452 520 30,000  Level FlightAware
04:18PM 29.4720 -83.1040 334° Northwest 451 519 30,000  Level FlightAware
04:19PM 29.5360 -83.1430 332° Northwest 451 519 30,000  Level FlightAware
04:20PM 29.5990 -83.1820 332° Northwest 451 519 30,000  Level FlightAware
04:21PM 29.7590 -83.2850 331° Northwest 451 519 30,000  Level FlightAware
04:21PM 29.8250 -83.3320 328° Northwest 442 509 30,000  Level FlightAware
04:22PM 29.9120 -83.3950 328° Northwest 440 506 30,000  Level FlightAware
04:23PM 29.9810 -83.4440 328° Northwest 440 506 30,000  Level FlightAware
04:24PM 30.0620 -83.5010 329° Northwest 440 506 30,000  Level FlightAware
04:24PM 30.1250 -83.5460 328° Northwest 440 506 30,000  Level FlightAware
04:27PM 30.3710 -83.7210 328° Northwest 449 517 30,000  Level FlightAware
04:27PM 30.3850 -83.7310 328° Northwest 449 517 30,000  Level FlightAware
04:28PM 30.5160 -83.8250 328° Northwest 450 518 30,000  Level FlightAware
04:29PM 30.5960 -83.8830 328° Northwest 450 518 30,000  Level FlightAware
04:29PM 30.6690 -83.9350 329° Northwest 448 516 30,000  Level FlightAware
04:30PM 30.7500 -83.9940 328° Northwest 447 514 30,000  Level FlightAware
04:31PM 30.8150 -84.0410 328° Northwest 447 514 30,000  Level FlightAware
04:32PM 30.8910 -84.0960 328° Northwest 445 512 30,000  Level FlightAware
04:32PM 30.8910 -84.0960 328° Northwest 444 511 30,000  Level FlightAware
04:34PM 30.8510 -84.0670 148° Southeast 444 511 30,000  Level FlightAware
04:35PM 30.9210 -84.1180 328° Northwest 444 511 30,000  Level FlightAware
04:35PM 30.9800 -84.1610 328° Northwest 444 511 30,000  Level FlightAware
04:36PM 31.0540 -84.2150 328° Northwest 444 511 30,000  Level FlightAware
04:37PM 31.1130 -84.2580 328° Northwest 444 511 30,000  Level FlightAware
04:38PM 31.1720 -84.3010 328° Northwest 444 511 30,000  Level FlightAware
04:38PM 31.2320 -84.3440 329° Northwest 444 511 30,000  Level FlightAware
04:39PM 31.2910 -84.3880 327° Northwest 444 511 30,000  Level FlightAware
04:40PM 31.3650 -84.4420 328° Northwest 444 511 30,000  Level FlightAware
04:40PM 31.4240 -84.4850 328° Northwest 444 511 30,000  Level FlightAware
04:41PM 31.4830 -84.5290 328° Northwest 444 511 30,000  Level FlightAware
04:42PM 31.5430 -84.5720 329° Northwest 444 511 30,000  Level FlightAware
04:42PM 31.6020 -84.6160 328° Northwest 444 511 30,000  Level FlightAware
04:43PM 31.6760 -84.6700 328° Northwest 444 511 30,000  Level FlightAware
04:44PM 31.7350 -84.7130 328° Northwest 444 511 30,000  Level FlightAware
04:48PM 32.6970 -85.3260 332° Northwest 473 544 30,000  Level FlightAware
04:49PM 32.7630 -85.3680 332° Northwest 473 544 30,000  Level FlightAware
04:49PM 32.8630 -85.4300 332° Northwest 456 525 30,000  Level FlightAware
04:50PM 32.9210 -85.4680 331° Northwest 456 525 30,000  Level FlightAware
04:51PM 32.9840 -85.5100 331° Northwest 456 525 30,000  Level FlightAware
04:51PM 33.0800 -85.5680 333° Northwest 455 524 30,000  Level FlightAware
04:52PM 33.1420 -85.6090 331° Northwest 455 524 30,000  Level FlightAware
04:53PM 33.2050 -85.6510 331° Northwest 455 524 30,000  Level FlightAware
04:54PM 33.2830 -85.7020 331° Northwest 455 524 30,000  Level FlightAware
04:54PM 33.3460 -85.7440 331° Northwest 455 524 30,000  Level FlightAware
04:55PM 33.4080 -85.7860 331° Northwest 455 524 30,000  Level FlightAware
04:56PM 33.4710 -85.8270 332° Northwest 455 524 30,000  Level FlightAware
04:56PM 33.5330 -85.8690 331° Northwest 455 524 30,000  Level FlightAware
04:57PM 33.6120 -85.9210 331° Northwest 455 524 30,000  Level FlightAware
04:58PM 33.6740 -85.9630 331° Northwest 455 524 30,000  Level FlightAware
04:58PM 33.7370 -86.0040 332° Northwest 455 524 30,000  Level FlightAware
04:59PM 33.7990 -86.0460 331° Northwest 455 524 30,000  Level FlightAware
05:00PM 33.8780 -86.0980 331° Northwest 455 524 30,000  Level FlightAware
05:00PM 34.1217 -86.2319 336° Northwest 456 525 30,000  Level FlightAware ADS-B
05:03PM 34.3847 -86.4026 332° Northwest 455 524 30,000  Level FlightAware ADS-B
05:04PM 34.4930 -86.4732 332° Northwest 455 524 30,000  Level FlightAware ADS-B
05:04PM 34.5600 -86.5168 332° Northwest 455 524 30,000  Level FlightAware ADS-B
05:05PM 34.6216 -86.5570 332° Northwest 455 524 30,000  Level FlightAware ADS-B
05:06PM 34.7141 -86.6173 332° Northwest 455 524 30,000  Level FlightAware ADS-B
05:07PM 34.8820 -86.7270 332° Northwest 455 524 30,000  Level FlightAware
05:08PM 34.9650 -86.7820 331° Northwest 454 522 30,000  Level FlightAware
05:09PM 35.0370 -86.8300 331° Northwest 453 521 30,000  Level FlightAware
05:09PM 35.1220 -86.8850 332° Northwest 453 521 30,000  Level FlightAware
05:10PM 35.1730 -86.9190 331° Northwest 453 521 30,000  Level FlightAware
05:11PM 35.2520 -86.9710 332° Northwest 452 520 30,000  Level FlightAware
05:12PM 35.3520 -87.0370 332° Northwest 450 518 30,000  Level FlightAware
05:12PM 35.3713 -87.0502 331° Northwest 451 519 30,000  Level FlightAware ADS-B
05:12PM 35.4490 -87.1020 331° Northwest 449 517 30,000  Level FlightAware
05:13PM 35.5210 -87.1500 332° Northwest 448 516 30,000  Level FlightAware
05:14PM 35.5830 -87.1920 331° Northwest 448 516 30,000  Level FlightAware
05:15PM 35.7080 -87.2740 332° Northwest 451 519 30,000  Level FlightAware
05:16PM 35.7910 -87.3300 331° Northwest 453 521 30,000  Level FlightAware
05:16PM 35.8660 -87.3800 332° Northwest 454 522 30,000  Level FlightAware
05:17PM 35.9250 -87.4200 331° Northwest 456 525 30,000  Level FlightAware
05:18PM 36.0240 -87.4860 332° Northwest 458 527 30,000  Level FlightAware
05:18PM 36.0890 -87.5300 331° Northwest 459 528 30,000  Level FlightAware
05:19PM 36.1630 -87.5810 331° Northwest 459 528 30,000  Level FlightAware
05:20PM 36.2260 -87.6240 331° Northwest 459 528 30,000  Level FlightAware
05:20PM 36.2890 -87.6670 331° Northwest 459 528 30,000  Level FlightAware
05:21PM 36.3680 -87.7220 331° Northwest 459 528 30,000  Level FlightAware
05:22PM 36.4310 -87.7650 331° Northwest 459 528 30,000  Level FlightAware
05:22PM 36.4940 -87.8090 331° Northwest 459 528 30,000  Level FlightAware
05:23PM 36.5570 -87.8520 331° Northwest 459 528 30,000  Level FlightAware
05:24PM 36.6210 -87.8960 331° Northwest 459 528 30,000  Level FlightAware
05:25PM 36.7000 -87.9500 331° Northwest 459 528 30,000  Level FlightAware
05:25PM 36.7630 -87.9940 331° Northwest 459 528 30,000 -1,440 Level FlightAware
05:26PM 36.9850 -88.1420 332° Northwest 475 547 28,000 -1,440 Descending FlightAware
05:27PM 37.0590 -88.1950 330° Northwest 475 547 28,000  Level FlightAware
05:27PM 37.1230 -88.2420 330° Northwest 475 547 28,000  Level FlightAware
05:28PM 37.2300 -88.3120 332° Northwest 478 550 28,000  Level FlightAware
05:29PM 37.3090 -88.3670 331° Northwest 478 550 28,000  Level FlightAware
05:30PM 37.3940 -88.4270 331° Northwest 479 551 28,000  Level FlightAware
05:30PM 37.4720 -88.4820 331° Northwest 479 551 28,000  Level FlightAware
05:31PM 37.5500 -88.5360 331° Northwest 479 551 28,000  Level FlightAware
05:32PM 37.6360 -88.5970 331° Northwest 479 551 28,000  Level FlightAware
05:32PM 37.7100 -88.6490 331° Northwest 480 552 28,000  Level FlightAware
05:33PM 37.8050 -88.7170 331° Northwest 482 555 28,000  Level FlightAware
05:34PM 37.8820 -88.7720 331° Northwest 482 555 28,000  Level FlightAware
05:34PM 37.9560 -88.8250 331° Northwest 481 554 28,000  Level FlightAware
05:35PM 38.0470 -88.8900 331° Northwest 481 554 28,000  Level FlightAware
05:36PM 38.1080 -88.9340 330° Northwest 481 554 28,000  Level FlightAware
05:36PM 38.1940 -88.9960 330° Northwest 481 554 28,000  Level FlightAware
05:37PM 38.2790 -89.0570 331° Northwest 481 554 28,000  Level FlightAware
05:38PM 38.3880 -89.1360 330° Northwest 481 554 28,000  Level FlightAware
05:39PM 38.4530 -89.1850 329° Northwest 481 554 28,000  Level FlightAware
05:39PM 38.5440 -89.2500 331° Northwest 480 552 28,000  Level FlightAware
05:40PM 38.6340 -89.3160 330° Northwest 481 554 28,000  Level FlightAware
05:41PM 38.7030 -89.3670 330° Northwest 481 554 28,000  Level FlightAware
05:42PM 38.7690 -89.4160 330° Northwest 481 554 28,000  Level FlightAware
05:42PM 38.8340 -89.4640 330° Northwest 481 554 28,000  Level FlightAware
05:43PM 38.9520 -89.5510 330° Northwest 479 551 28,000  Level FlightAware
05:44PM 39.0300 -89.6110 329° Northwest 479 551 28,000  Level FlightAware
05:44PM 39.1210 -89.6770 331° Northwest 480 552 28,000  Level FlightAware
05:45PM 39.2020 -89.7380 330° Northwest 480 552 28,000  Level FlightAware
05:46PM 39.2910 -89.8050 330° Northwest 480 552 28,000  Level FlightAware
05:46PM 39.3460 -89.8470 329° Northwest 481 554 28,000 60 Level FlightAware
05:47PM 39.4360 -89.9160 329° Northwest 481 554 28,100 1,260 Climbing FlightAware
05:48PM 39.5300 -89.9860 330° Northwest 476 548 30,000 2,160 Climbing FlightAware
05:49PM 39.6040 -90.0430 329° Northwest 467 537 31,200 1,620 Climbing FlightAware
05:49PM 39.6730 -90.0960 329° Northwest 460 529 32,200 720 Climbing FlightAware
05:50PM 39.7540 -90.1590 329° Northwest 460 529 32,300 60 Climbing FlightAware
05:51PM 39.8160 -90.2070 329° Northwest 460 529 32,300 1,320 Level FlightAware
05:51PM 39.8970 -90.2690 330° Northwest 454 522 34,000 1,260 Climbing FlightAware
05:52PM 39.9740 -90.3280 330° Northwest 447 514 34,000  Level FlightAware
05:53PM 40.0560 -90.3920 329° Northwest 452 520 34,000  Level FlightAware
05:54PM 40.1320 -90.4520 329° Northwest 455 524 34,000  Level FlightAware
05:54PM 40.2130 -90.5160 329° Northwest 458 527 34,000  Level FlightAware
05:55PM 40.2930 -90.5790 329° Northwest 460 529 34,000  Level FlightAware
05:55PM 40.3440 -90.6190 329° Northwest 458 527 34,000  Level FlightAware
05:56PM 40.4330 -90.6910 328° Northwest 458 527 34,000  Level FlightAware
05:57PM 40.4950 -90.7410 328° Northwest 458 527 34,000  Level FlightAware
05:58PM 40.5860 -90.8130 329° Northwest 454 522 34,000  Level FlightAware
05:58PM 40.6460 -90.8620 328° Northwest 454 522 34,000  Level FlightAware
05:59PM 40.7430 -90.9380 329° Northwest 448 516 34,000  Level FlightAware
06:00PM 40.8240 -91.0030 329° Northwest 447 514 34,000  Level FlightAware
06:01PM 40.8940 -91.0590 329° Northwest 446 513 34,000  Level FlightAware
06:01PM 40.9650 -91.1170 328° Northwest 444 511 34,000  Level FlightAware
06:02PM 41.0360 -91.1750 328° Northwest 445 512 34,000  Level FlightAware
06:03PM 41.1150 -91.2390 329° Northwest 443 510 34,000 -420 Level FlightAware
06:03PM 41.1740 -91.2880 328° Northwest 435 501 33,500 -1,380 Descending FlightAware
06:04PM 41.2540 -91.3530 329° Northwest 433 498 32,100 -1,020 Descending FlightAware
06:05PM 41.3100 -91.4000 328° Northwest 433 498 32,100 -120 Level FlightAware
06:05PM 41.4040 -91.4770 328° Northwest 432 497 32,000 -60 Descending FlightAware
06:06PM 41.4900 -91.5490 328° Northwest 431 496 32,000  Level FlightAware
06:07PM 41.5580 -91.6050 328° Northwest 434 499 32,000  Level FlightAware
06:08PM 41.6430 -91.6760 328° Northwest 447 514 32,000  Level FlightAware
06:08PM 41.7070 -91.7290 328° Northwest 456 525 32,000  Level FlightAware
06:09PM 41.7760 -91.7890 327° Northwest 456 525 32,000  Level FlightAware
06:10PM 41.8670 -91.8630 329° Northwest 449 517 32,000  Level FlightAware
06:11PM 41.9360 -91.9210 328° Northwest 445 512 32,000  Level FlightAware
06:11PM 42.0150 -91.9870 328° Northwest 441 507 32,000  Level FlightAware
06:12PM 42.0840 -92.0450 328° Northwest 439 505 32,000  Level FlightAware
06:13PM 42.1560 -92.1060 328° Northwest 437 503 32,000  Level FlightAware
06:13PM 42.2300 -92.1690 328° Northwest 436 502 32,000  Level FlightAware
06:14PM 42.2980 -92.2270 328° Northwest 435 501 32,000  Level FlightAware
06:15PM 42.3770 -92.2940 328° Northwest 436 502 32,000  Level FlightAware
06:15PM 42.4460 -92.3530 328° Northwest 438 504 32,000  Level FlightAware
06:16PM 42.5140 -92.4120 327° Northwest 441 507 32,000  Level FlightAware
06:17PM 42.5810 -92.4720 327° Northwest 443 510 32,000  Level FlightAware
06:18PM 42.6550 -92.5420 325° Northwest 446 513 32,000  Level FlightAware
06:18PM 42.7240 -92.6060 326° Northwest 447 514 32,000  Level FlightAware
06:19PM 42.8050 -92.6810 326° Northwest 447 514 32,000  Level FlightAware
06:20PM 42.8670 -92.7390 326° Northwest 447 514 32,000  Level FlightAware
06:20PM 42.9490 -92.8160 326° Northwest 446 513 32,000  Level FlightAware
06:21PM 43.0180 -92.8800 326° Northwest 445 512 32,000  Level FlightAware
06:22PM 43.0850 -92.9430 326° Northwest 445 512 32,000 -300 Level FlightAware
06:22PM 43.1520 -93.0060 326° Northwest 442 509 31,600 -1,980 Descending FlightAware
06:23PM 43.2290 -93.0780 326° Northwest 450 518 29,200 -3,300 Descending FlightAware
06:24PM 43.2970 -93.1420 326° Northwest 452 520 27,000 -3,000 Descending FlightAware
06:25PM 43.3760 -93.2170 325° Northwest 444 511 25,000 -2,700 Descending FlightAware
06:25PM 43.4430 -93.2800 326° Northwest 438 504 23,200 -2,640 Descending FlightAware
06:26PM 43.5200 -93.3090 345° North 446 513 21,500 -2,520 Descending FlightAware
06:26PM 43.5790 -93.3050 North 442 509 20,300 -2,400 Descending FlightAware
06:27PM 43.6610 -93.2960 North 413 475 18,500 -2,340 Descending FlightAware
06:28PM 43.7750 -93.2850 North 393 452 16,400 -2,160 Descending FlightAware
06:29PM 43.8460 -93.2780 North 382 440 15,100 -1,920 Descending FlightAware
06:29PM 43.9240 -93.2710 North 371 427 13,700 -1,920 Descending FlightAware
06:30PM 43.9910 -93.2640 North 363 418 12,400 -1,920 Descending FlightAware
06:31PM 44.0580 -93.2570 North 355 409 11,200 -1,440 Descending FlightAware
06:32PM 44.1310 -93.2500 North 326 375 10,400 -780 Descending FlightAware
06:32PM 44.1880 -93.2440 North 295 339 10,100 -240 Descending FlightAware
06:33PM 44.2470 -93.2390 North 291 335 10,100  Level FlightAware
06:34PM 44.3010 -93.2330 North 290 334 10,100  Level FlightAware
06:34PM 44.3640 -93.2260 North 293 337 10,100  Level FlightAware
06:35PM 44.4170 -93.2210 North 293 337 10,100  Level FlightAware
06:36PM 44.4780 -93.2150 North 293 337 10,100  Level FlightAware
06:36PM 44.5310 -93.2090 North 292 336 10,100  Level FlightAware
06:37PM 44.5940 -93.2050 North 293 337 10,100 -300 Level FlightAware
06:38PM 44.6460 -93.2300 341° North 287 330 9,700 -840 Descending FlightAware
06:38PM 44.6730 -93.2470 336° Northwest 286 329 9,200 -1,320 Descending FlightAware
06:39PM 44.7100 -93.2700 336° Northwest 284 327 8,500 -1,140 Descending FlightAware
06:39PM 44.7470 -93.2930 336° Northwest 280 322 8,100 -480 Descending FlightAware
06:40PM 44.7780 -93.3120 336° Northwest 283 326 8,100  Level FlightAware
06:40PM 44.7920 -93.3270 323° Northwest 279 321 8,100 -540 Level FlightAware
06:40PM 44.8140 -93.3710 305° West 271 312 7,700 -1,680 Descending FlightAware
06:41PM 44.8310 -93.4110 301° West 271 312 6,600 -2,400 Descending FlightAware
06:41PM 44.8450 -93.4590 292° West 270 311 5,500 -2,040 Descending FlightAware
06:42PM 44.8650 -93.5030 303° West 256 295 4,600 -1,680 Descending FlightAware
06:42PM 44.8750 -93.5090 337° Northwest 246 283 4,400 -1,200 Descending FlightAware
06:42PM 44.8840 -93.5110 351° North 239 275 4,200 -600 Descending FlightAware
06:43PM 44.9050 -93.4990 22° Northeast 219 252 4,100 -540 Descending FlightAware
06:43PM 44.9110 -93.4810 65° Northeast 211 243 3,900 -720 Descending FlightAware
06:43PM 44.9120 -93.4680 84° East 205 236 3,800 -480 Descending FlightAware
06:43PM 44.9110 -93.4300 92° East 194 223 3,600 -600 Descending FlightAware
06:44PM 44.9090 -93.3940 94° East 179 206 3,200 -900 Descending FlightAware
06:44PM 44.9060 -93.3660 99° East 161 185 2,800 -900 Descending FlightAware
06:45PM 44.8980 -93.3370 111° Southeast 145 167 2,400 -780 Descending FlightAware
06:45PM 44.8910 -93.3150 114° Southeast 145 167 2,100 -780 Descending FlightAware
06:46PM 44.8810 -93.2920 122° Southeast 145 167 1,700 -780 Descending FlightAware
06:46PM 44.8730 -93.2700 117° Southeast 144 166 1,400 -780 Descending FlightAware
06:47PM 44.8620 -93.2440 121° Southeast 143 165 1,000 -840 Descending FlightAware